createdAt,value
2019-05-19T00:03:36.171Z,96855.91
2019-05-19T00:08:37.942Z,96854.08
2019-05-19T00:13:39.428Z,96850.90
2019-05-19T00:18:41.111Z,96855.89
2019-05-19T00:23:42.620Z,96849.39
2019-05-19T00:28:44.226Z,96838.91
2019-05-19T00:33:45.882Z,96839.25
2019-05-19T00:38:47.469Z,96836.93
2019-05-19T00:43:49.166Z,96843.41
2019-05-19T00:48:52.165Z,96851.75
2019-05-19T00:53:53.885Z,96846.25
2019-05-19T00:58:57.815Z,96846.25
2019-05-19T01:03:59.493Z,96838.91
2019-05-19T01:09:01.066Z,96832.94
2019-05-19T01:14:03.940Z,96828.09
2019-05-19T01:19:05.522Z,96826.45
2019-05-19T01:24:06.990Z,96820.61
2019-05-19T01:29:08.599Z,96824.44
2019-05-19T01:34:10.073Z,96828.95
2019-05-19T01:39:11.548Z,96831.61
2019-05-19T01:44:13.167Z,96835.26
2019-05-19T01:49:14.650Z,96822.59
2019-05-19T01:54:16.800Z,96827.27
2019-05-19T01:59:18.463Z,96827.27
2019-05-19T02:04:19.931Z,96825.76
2019-05-19T02:09:21.408Z,96827.19
2019-05-19T02:14:23.098Z,96831.34
2019-05-19T02:19:24.597Z,96825.48
2019-05-19T02:24:26.162Z,96824.45
2019-05-19T02:29:27.679Z,96827.89
2019-05-19T02:34:29.162Z,96819.07
2019-05-19T02:39:30.636Z,96821.53
2019-05-19T02:44:35.925Z,96808.36
2019-05-19T02:49:39.397Z,96814.34
2019-05-19T02:54:41.273Z,96819.98
2019-05-19T02:59:43.998Z,96811.80
2019-05-19T03:04:45.477Z,96813.25
2019-05-19T03:09:46.954Z,96807.11
2019-05-19T03:14:48.444Z,96813.42
2019-05-19T03:19:49.913Z,96829.19
2019-05-19T03:24:51.374Z,96828.55
2019-05-19T03:29:54.813Z,96829.53
2019-05-19T03:34:56.294Z,96830.39
2019-05-19T03:39:57.882Z,96824.22
2019-05-19T03:44:59.394Z,96824.56
2019-05-19T03:50:00.977Z,96814.12
2019-05-19T03:55:05.467Z,96818.92
2019-05-19T04:00:08.690Z,96816.28
2019-05-19T04:05:11.065Z,96821.96
2019-05-19T04:10:13.856Z,96824.31
2019-05-19T04:15:16.330Z,96821.38
2019-05-19T04:20:17.914Z,96821.38
2019-05-19T04:25:19.387Z,96821.75
2019-05-19T04:30:21.123Z,96823.13
2019-05-19T04:35:22.706Z,96815.69
2019-05-19T04:40:24.192Z,96824.34
2019-05-19T04:45:25.687Z,96814.73
2019-05-19T04:50:27.165Z,96818.59
2019-05-19T04:55:28.844Z,96815.45
2019-05-19T05:00:30.362Z,96815.28
2019-05-19T05:05:31.834Z,96814.95
2019-05-19T05:10:33.448Z,96815.73
2019-05-19T05:15:34.923Z,96814.91
2019-05-19T05:20:36.402Z,96819.86
2019-05-19T05:25:37.878Z,96820.50
2019-05-19T05:30:39.395Z,96807.80
2019-05-19T05:35:40.867Z,96813.90
2019-05-19T05:40:42.349Z,96812.63
2019-05-19T05:45:43.879Z,96802.00
2019-05-19T05:50:45.386Z,96812.55
2019-05-19T05:55:46.979Z,96810.20
2019-05-19T06:00:48.603Z,96814.28
2019-05-19T06:05:50.086Z,96822.66
2019-05-19T06:10:52.783Z,96816.75
2019-05-19T06:15:54.321Z,96818.10
2019-05-19T06:20:55.811Z,96812.80
2019-05-19T06:25:57.281Z,96816.27
2019-05-19T06:30:58.899Z,96811.70
2019-05-19T06:36:00.387Z,96810.97
2019-05-19T06:41:01.864Z,96817.33
2019-05-19T06:46:03.588Z,96818.00
2019-05-19T06:51:05.060Z,96815.42
2019-05-19T06:56:06.634Z,96821.56
2019-05-19T07:01:08.144Z,96818.19
2019-05-19T07:06:09.730Z,96814.14
2019-05-19T07:11:11.218Z,96806.98
2019-05-19T07:16:12.707Z,96801.38
2019-05-19T07:21:14.193Z,96801.81
2019-05-19T07:26:15.672Z,96796.23
2019-05-19T07:31:17.202Z,96804.38
2019-05-19T07:36:18.685Z,96805.63
2019-05-19T07:41:20.261Z,96799.30
2019-05-19T07:46:22.972Z,96799.91
2019-05-19T07:51:24.577Z,96793.38
2019-05-19T07:56:26.051Z,96800.31
2019-05-19T08:01:28.286Z,96799.95
2019-05-19T08:06:29.763Z,96798.93
2019-05-19T08:11:31.240Z,96802.47
2019-05-19T08:16:32.712Z,96804.66
2019-05-19T08:21:34.200Z,96801.33
2019-05-19T08:26:35.668Z,96803.89
2019-05-19T08:31:38.378Z,96806.16
2019-05-19T08:36:39.885Z,96802.72
2019-05-19T08:41:41.378Z,96807.14
2019-05-19T08:46:43.327Z,96805.91
2019-05-19T08:51:44.909Z,96798.97
2019-05-19T08:56:46.371Z,96795.70
2019-05-19T09:01:47.891Z,96803.23
2019-05-19T09:06:49.372Z,96798.78
2019-05-19T09:11:50.839Z,96796.59
2019-05-19T09:16:52.319Z,96793.04
2019-05-19T09:21:53.904Z,96795.36
2019-05-19T09:26:55.481Z,96799.20
2019-05-19T09:31:57.002Z,96791.45
2019-05-19T09:36:58.683Z,96789.83
2019-05-19T09:42:00.159Z,96787.86
2019-05-19T09:47:01.657Z,96786.63
2019-05-19T09:52:04.839Z,96781.17
2019-05-19T09:57:06.445Z,96772.45
2019-05-19T10:02:08.220Z,96767.45
2019-05-19T10:07:09.994Z,96763.79
2019-05-19T10:12:11.659Z,96762.31
2019-05-19T10:17:13.335Z,96756.73
2019-05-19T10:22:14.923Z,96752.79
2019-05-19T10:27:16.834Z,96757.64
2019-05-19T10:32:18.682Z,96754.32
2019-05-19T10:37:21.387Z,96747.02
2019-05-19T10:42:22.864Z,96748.73
2019-05-19T10:47:24.378Z,96746.34
2019-05-19T10:52:25.883Z,96741.25
2019-05-19T10:57:27.342Z,96725.82
2019-05-19T11:02:28.977Z,96738.45
2019-05-19T11:07:30.454Z,96725.71
2019-05-19T11:12:32.037Z,96725.06
2019-05-19T11:17:33.615Z,96709.80
2019-05-19T11:22:35.098Z,96714.05
2019-05-19T11:27:36.587Z,96703.51
2019-05-19T11:32:38.109Z,96697.07
2019-05-19T11:37:39.592Z,96696.09
2019-05-19T11:42:41.117Z,96688.00
2019-05-19T11:47:42.613Z,96676.93
2019-05-19T11:52:44.382Z,96661.77
2019-05-19T11:57:46.100Z,96659.81
2019-05-19T12:02:47.830Z,96648.14
2019-05-19T12:07:49.409Z,96639.08
2019-05-19T12:12:50.993Z,96629.73
2019-05-19T12:17:52.671Z,96623.83
2019-05-19T12:22:54.952Z,96613.91
2019-05-19T12:27:56.581Z,96583.52
2019-05-19T12:32:59.506Z,96570.62
2019-05-19T12:38:02.245Z,96590.13
2019-05-19T12:43:03.970Z,96641.33
2019-05-19T12:48:05.457Z,96696.10
2019-05-19T12:53:07.082Z,96793.63
2019-05-19T12:58:08.766Z,96774.73
2019-05-19T13:03:10.412Z,96735.73
2019-05-19T13:08:12.012Z,96733.84
2019-05-19T13:13:13.488Z,96759.28
2019-05-19T13:18:14.965Z,96754.94
2019-05-19T13:23:16.452Z,96742.66
2019-05-19T13:28:18.019Z,96747.50
2019-05-19T13:33:19.667Z,96742.22
2019-05-19T13:38:22.247Z,96743.03
2019-05-19T13:43:26.364Z,96735.45
2019-05-19T13:48:27.702Z,96735.24
2019-05-19T13:53:29.185Z,96735.66
2019-05-19T13:58:30.980Z,96762.75
2019-05-19T14:03:32.595Z,96750.16
2019-05-19T14:08:34.121Z,96748.53
2019-05-19T14:13:35.598Z,96746.40
2019-05-19T14:18:37.073Z,96752.37
2019-05-19T14:23:38.549Z,96758.14
2019-05-19T14:28:41.122Z,96747.27
2019-05-19T14:33:42.605Z,96735.98
2019-05-19T14:38:59.805Z,96728.55
2019-05-19T14:44:03.503Z,96726.36
2019-05-19T14:49:05.026Z,96730.53
2019-05-19T14:54:06.611Z,96728.98
2019-05-19T14:59:08.091Z,96716.84
2019-05-19T15:04:09.571Z,96700.09
2019-05-19T15:09:11.198Z,96700.56
2019-05-19T15:14:12.781Z,96711.95
2019-05-19T15:19:14.360Z,96719.25
2019-05-19T15:24:15.837Z,96713.42
2019-05-19T15:29:17.332Z,96709.58
2019-05-19T15:34:18.881Z,96713.47
2019-05-19T15:39:20.755Z,96711.44
2019-05-19T15:44:22.274Z,96707.17
2019-05-19T15:49:23.755Z,96707.09
2019-05-19T15:54:25.336Z,96703.64
2019-05-19T15:59:26.922Z,96706.95
2019-05-19T16:04:28.427Z,96700.81
2019-05-19T16:09:30.039Z,96709.21
2019-05-19T16:14:31.512Z,96700.59
2019-05-19T16:19:32.993Z,96690.56
2019-05-19T16:24:34.474Z,96691.24
2019-05-19T16:29:36.049Z,96691.47
2019-05-19T16:34:37.647Z,96693.09
2019-05-19T16:39:39.577Z,96700.16
2019-05-19T16:44:41.103Z,96698.95
2019-05-19T16:49:42.802Z,96699.46
2019-05-19T16:54:49.202Z,96697.95
2019-05-19T16:59:50.683Z,96703.23
2019-05-19T17:04:52.154Z,96710.13
2019-05-19T17:09:53.674Z,96710.98
2019-05-19T17:14:55.159Z,96713.46
2019-05-19T17:19:56.640Z,96716.98
2019-05-19T17:25:00.339Z,96714.58
2019-05-19T17:30:06.886Z,96715.98
2019-05-19T17:35:09.366Z,96707.86
2019-05-19T17:40:12.185Z,96711.84
2019-05-19T17:45:14.667Z,96705.02
2019-05-19T17:50:32.459Z,96707.56
2019-05-19T17:55:35.256Z,96698.99
2019-05-19T18:00:40.128Z,96703.35
2019-05-19T18:05:41.710Z,96705.02
2019-05-19T18:10:43.333Z,96710.08
2019-05-19T18:15:44.948Z,96702.42
2019-05-19T18:20:47.158Z,96683.47
2019-05-19T18:25:48.842Z,96682.33
2019-05-19T18:30:50.325Z,96677.65
2019-05-19T18:35:52.919Z,96663.60
2019-05-19T18:40:54.488Z,96655.72
2019-05-19T18:45:56.061Z,96647.02
2019-05-19T18:50:57.582Z,96646.89
2019-05-19T18:55:59.264Z,96658.78
2019-05-19T19:01:00.737Z,96661.47
2019-05-19T19:06:02.425Z,96657.42
2019-05-19T19:11:04.110Z,96656.16
2019-05-19T19:16:05.635Z,96656.02
2019-05-19T19:21:07.289Z,96647.47
2019-05-19T19:26:08.764Z,96644.44
2019-05-19T19:31:10.249Z,96650.81
2019-05-19T19:36:11.725Z,96660.34
2019-05-19T19:41:13.301Z,96653.11
2019-05-19T19:46:14.930Z,96638.13
2019-05-19T19:51:17.514Z,96623.54
2019-05-19T19:56:18.989Z,96613.22
2019-05-19T20:01:20.555Z,96605.47
2019-05-19T20:06:22.036Z,96606.52
2019-05-19T20:11:23.826Z,96619.72
2019-05-19T20:16:25.340Z,96617.09
2019-05-19T20:21:26.959Z,96619.60
2019-05-19T20:26:28.441Z,96621.38
2019-05-19T20:31:31.509Z,96631.59
2019-05-19T20:36:33.253Z,96636.70
2019-05-19T20:41:34.891Z,96627.67
2019-05-19T20:46:36.500Z,96611.00
2019-05-19T20:51:37.977Z,96597.88
2019-05-19T20:56:39.458Z,96607.38
2019-05-19T21:01:40.935Z,96618.54
2019-05-19T21:06:42.411Z,96623.19
2019-05-19T21:11:44.163Z,96616.64
2019-05-19T21:16:45.647Z,96593.30
2019-05-19T21:21:47.531Z,96598.11
2019-05-19T21:26:49.115Z,96592.42
2019-05-19T21:31:50.586Z,96598.80
2019-05-19T21:36:52.059Z,96602.80
2019-05-19T21:41:53.593Z,96602.31
2019-05-19T21:46:55.112Z,96612.50
2019-05-19T21:51:56.590Z,96611.09
2019-05-19T21:56:58.177Z,96611.55
2019-05-19T22:02:00.167Z,96616.05
2019-05-19T22:07:09.559Z,96611.29
2019-05-19T22:12:11.189Z,96596.83
2019-05-19T22:17:12.664Z,96596.38
2019-05-19T22:22:14.238Z,96582.38
2019-05-19T22:27:15.721Z,96574.48
2019-05-19T22:32:17.195Z,96577.08
2019-05-19T22:37:18.663Z,96570.06
2019-05-19T22:42:20.230Z,96559.50
2019-05-19T22:47:21.730Z,96557.19
2019-05-19T22:52:23.207Z,96548.09
2019-05-19T22:57:24.688Z,96537.66
2019-05-19T23:02:26.175Z,96544.60
2019-05-19T23:07:27.665Z,96536.12
2019-05-19T23:12:29.180Z,96524.02
2019-05-19T23:17:30.763Z,96538.45
2019-05-19T23:22:32.260Z,96537.95
2019-05-19T23:27:33.923Z,96532.86
2019-05-19T23:32:35.410Z,96529.83
2019-05-19T23:37:36.888Z,96539.59
2019-05-19T23:42:38.535Z,96528.28
2019-05-19T23:47:40.054Z,96508.05
2019-05-19T23:52:41.524Z,96499.83
2019-05-19T23:57:43.106Z,96475.78
